createdAt,value
2018-03-01T00:02:21.990Z,43.10
2018-03-01T00:04:49.461Z,43.00
2018-03-01T00:07:16.907Z,43.00
2018-03-01T00:09:44.386Z,43.10
2018-03-01T00:12:11.840Z,43.00
2018-03-01T00:14:39.296Z,43.00
2018-03-01T00:17:06.759Z,43.00
2018-03-01T00:19:34.198Z,43.20
2018-03-01T00:22:01.653Z,43.20
2018-03-01T00:24:29.094Z,43.10
2018-03-01T00:26:56.540Z,43.20
2018-03-01T00:29:24.002Z,43.20
2018-03-01T00:31:51.471Z,43.30
2018-03-01T00:34:18.944Z,43.00
2018-03-01T00:36:46.403Z,43.00
2018-03-01T00:39:14.180Z,43.00
2018-03-01T00:41:41.670Z,43.00
2018-03-01T00:44:09.101Z,43.00
2018-03-01T00:46:38.081Z,42.90
2018-03-01T00:49:05.821Z,42.90
2018-03-01T00:51:33.280Z,42.90
2018-03-01T00:54:00.737Z,43.00
2018-03-01T00:56:28.176Z,42.90
2018-03-01T00:58:55.641Z,42.80
2018-03-01T01:01:23.105Z,42.80
2018-03-01T01:03:50.551Z,42.60
2018-03-01T01:06:18.256Z,42.50
2018-03-01T01:08:45.709Z,42.70
2018-03-01T01:11:13.180Z,42.70
2018-03-01T01:13:40.833Z,42.70
2018-03-01T01:16:08.292Z,42.50
2018-03-01T01:18:35.752Z,42.50
2018-03-01T01:21:06.074Z,42.40
2018-03-01T01:23:33.535Z,42.40
2018-03-01T01:26:00.978Z,42.30
2018-03-01T01:28:28.432Z,42.40
2018-03-01T01:30:55.898Z,42.50
2018-03-01T01:33:23.342Z,42.60
2018-03-01T01:35:50.793Z,42.30
2018-03-01T01:38:18.236Z,42.30
2018-03-01T01:40:45.696Z,42.50
2018-03-01T01:43:13.166Z,42.30
2018-03-01T01:45:42.853Z,42.30
2018-03-01T01:48:10.305Z,42.40
2018-03-01T01:50:49.374Z,42.20
2018-03-01T01:53:16.845Z,42.10
2018-03-01T01:55:44.305Z,41.80
2018-03-01T01:58:12.544Z,42.50
2018-03-01T02:00:40.011Z,42.40
2018-03-01T02:03:07.472Z,42.10
2018-03-01T02:05:34.921Z,42.00
2018-03-01T02:08:02.362Z,41.80
2018-03-01T02:10:31.189Z,41.80
2018-03-01T02:12:58.656Z,42.10
2018-03-01T02:15:26.108Z,41.90
2018-03-01T02:17:53.564Z,42.00
2018-03-01T02:20:21.005Z,41.90
2018-03-01T02:22:48.428Z,42.20
2018-03-01T02:25:15.896Z,42.20
2018-03-01T02:27:43.342Z,42.20
2018-03-01T02:30:22.422Z,42.10
2018-03-01T02:32:49.879Z,42.10
2018-03-01T02:35:20.253Z,42.20
2018-03-01T02:37:47.713Z,42.50
2018-03-01T02:40:15.166Z,42.30
2018-03-01T02:42:42.655Z,42.50
2018-03-01T02:45:10.086Z,42.40
2018-03-01T02:47:37.669Z,42.40
2018-03-01T02:50:05.117Z,42.50
2018-03-01T02:52:32.591Z,42.20
2018-03-01T02:55:00.047Z,42.30
2018-03-01T02:57:27.487Z,42.30
2018-03-01T02:59:54.945Z,42.30
2018-03-01T03:02:22.403Z,42.60
2018-03-01T03:04:49.850Z,42.70
2018-03-01T03:07:17.313Z,42.40
2018-03-01T03:09:44.775Z,42.30
2018-03-01T03:12:12.565Z,42.50
2018-03-01T03:14:40.010Z,42.50
2018-03-01T03:17:07.457Z,42.60
2018-03-01T03:19:35.061Z,42.70
2018-03-01T03:22:02.535Z,42.90
2018-03-01T03:24:30.019Z,42.70
2018-03-01T03:26:57.470Z,42.80
2018-03-01T03:29:24.933Z,42.80
2018-03-01T03:31:53.174Z,42.80
2018-03-01T03:34:20.639Z,42.80
2018-03-01T03:36:48.107Z,42.90
2018-03-01T03:39:15.548Z,43.00
2018-03-01T03:41:43.132Z,42.80
2018-03-01T03:44:10.590Z,42.50
2018-03-01T03:46:38.456Z,42.60
2018-03-01T03:49:05.914Z,42.70
2018-03-01T03:51:33.349Z,42.70
2018-03-01T03:54:00.792Z,42.80
2018-03-01T03:56:28.273Z,43.10
2018-03-01T03:58:55.708Z,42.80
2018-03-01T04:01:23.242Z,43.00
2018-03-01T04:03:50.694Z,42.60
2018-03-01T04:06:18.714Z,42.80
2018-03-01T04:08:46.184Z,42.90
2018-03-01T04:11:13.626Z,42.90
2018-03-01T04:13:41.869Z,43.10
2018-03-01T04:16:09.302Z,43.00
2018-03-01T04:18:36.744Z,43.00
2018-03-01T04:21:04.228Z,42.80
2018-03-01T04:23:31.688Z,43.00
2018-03-01T04:25:59.172Z,42.80
2018-03-01T04:28:26.607Z,42.80
2018-03-01T04:30:54.046Z,43.10
2018-03-01T04:33:21.519Z,43.20
2018-03-01T04:35:48.976Z,43.00
2018-03-01T04:38:16.426Z,43.00
2018-03-01T04:40:43.863Z,43.10
2018-03-01T04:43:11.313Z,43.00
2018-03-01T04:45:38.781Z,43.30
2018-03-01T04:48:06.236Z,43.20
2018-03-01T04:50:33.803Z,43.10
2018-03-01T04:53:01.259Z,43.10
2018-03-01T04:55:28.719Z,43.30
2018-03-01T04:57:56.180Z,43.40
2018-03-01T05:00:23.630Z,43.40
2018-03-01T05:02:51.108Z,43.40
2018-03-01T05:05:18.548Z,43.40
2018-03-01T05:07:46.005Z,43.40
2018-03-01T05:10:13.464Z,43.40
2018-03-01T05:12:40.917Z,43.40
2018-03-01T05:15:08.378Z,43.30
2018-03-01T05:17:35.960Z,43.30
2018-03-01T05:20:03.411Z,43.30
2018-03-01T05:22:30.876Z,43.40
2018-03-01T05:24:58.321Z,43.30
2018-03-01T05:27:25.782Z,43.40
2018-03-01T05:29:53.284Z,43.70
2018-03-01T05:32:21.529Z,43.40
2018-03-01T05:34:48.998Z,43.40
2018-03-01T05:37:16.441Z,43.30
2018-03-01T05:39:43.890Z,43.40
2018-03-01T05:42:11.351Z,43.30
2018-03-01T05:44:38.792Z,43.40
2018-03-01T05:47:06.249Z,43.50
2018-03-01T05:49:33.698Z,43.50
2018-03-01T05:52:01.154Z,43.30
2018-03-01T05:54:31.420Z,43.50
2018-03-01T05:56:58.856Z,43.50
2018-03-01T05:59:26.350Z,43.50
2018-03-01T06:01:53.805Z,43.40
2018-03-01T06:04:21.247Z,43.50
2018-03-01T06:06:48.713Z,43.70
2018-03-01T06:09:16.172Z,43.40
2018-03-01T06:11:43.637Z,43.40
2018-03-01T06:14:11.081Z,43.50
2018-03-01T06:16:39.531Z,43.60
2018-03-01T06:19:06.999Z,43.40
2018-03-01T06:21:34.472Z,43.60
2018-03-01T06:24:01.955Z,43.40
2018-03-01T06:26:29.411Z,43.60
2018-03-01T06:28:56.867Z,43.10
2018-03-01T06:31:24.322Z,43.30
2018-03-01T06:33:52.528Z,43.20
2018-03-01T06:36:20.271Z,43.10
2018-03-01T06:38:47.726Z,43.20
2018-03-01T06:41:15.190Z,43.10
2018-03-01T06:43:42.633Z,42.90
2018-03-01T06:46:10.074Z,43.20
2018-03-01T06:48:37.528Z,42.90
2018-03-01T06:51:04.971Z,42.90
2018-03-01T06:53:32.438Z,43.00
2018-03-01T06:55:59.905Z,42.90
2018-03-01T06:58:27.590Z,42.80
2018-03-01T07:00:55.045Z,42.90
2018-03-01T07:03:22.502Z,42.70
2018-03-01T07:05:49.949Z,42.50
2018-03-01T07:08:17.409Z,42.40
2018-03-01T07:10:45.160Z,42.20
2018-03-01T07:13:12.574Z,42.40
2018-03-01T07:15:40.042Z,42.80
2018-03-01T07:18:07.699Z,42.80
2018-03-01T07:20:35.180Z,42.60
2018-03-01T07:23:02.630Z,42.30
2018-03-01T07:25:30.102Z,42.00
2018-03-01T07:27:57.548Z,42.40
2018-03-01T07:30:24.988Z,42.50
2018-03-01T07:32:52.445Z,42.10
2018-03-01T07:35:19.906Z,41.80
2018-03-01T07:37:47.381Z,41.90
2018-03-01T07:40:14.825Z,41.90
2018-03-01T07:42:42.270Z,41.90
2018-03-01T07:45:09.718Z,41.70
2018-03-01T07:47:37.921Z,41.80
2018-03-01T07:50:05.380Z,41.70
2018-03-01T07:52:32.826Z,41.60
2018-03-01T07:55:00.258Z,41.50
2018-03-01T07:57:27.739Z,41.50
2018-03-01T07:59:55.192Z,40.90
2018-03-01T08:02:22.650Z,41.00
2018-03-01T08:04:50.106Z,41.30
2018-03-01T08:07:17.732Z,41.40
2018-03-01T08:09:45.220Z,41.40
2018-03-01T08:12:12.654Z,40.80
2018-03-01T08:14:40.125Z,40.80
2018-03-01T08:17:07.574Z,41.20
2018-03-01T08:19:35.025Z,40.10
2018-03-01T08:22:02.583Z,40.10
2018-03-01T08:24:30.030Z,40.40
2018-03-01T08:26:57.496Z,40.20
2018-03-01T08:29:24.955Z,39.90
2018-03-01T08:31:52.408Z,39.80
2018-03-01T08:34:19.874Z,39.60
2018-03-01T08:36:47.330Z,39.50
2018-03-01T08:39:14.801Z,40.00
2018-03-01T08:41:42.253Z,40.00
2018-03-01T08:44:09.727Z,39.70
2018-03-01T08:46:38.974Z,39.70
2018-03-01T08:51:39.411Z,39.60
2018-03-01T08:54:06.869Z,39.10
2018-03-01T08:56:34.322Z,38.90
2018-03-01T08:59:01.782Z,38.70
2018-03-01T09:01:29.290Z,38.60
2018-03-01T09:03:56.718Z,38.10
2018-03-01T09:06:24.174Z,38.00
2018-03-01T09:08:51.623Z,37.90
2018-03-01T09:11:19.137Z,38.00
2018-03-01T09:13:46.586Z,38.00
2018-03-01T09:16:14.044Z,37.80
2018-03-01T09:18:41.505Z,37.20
2018-03-01T09:21:08.952Z,36.70
2018-03-01T09:23:36.406Z,36.90
2018-03-01T09:26:03.885Z,36.50
2018-03-01T09:28:31.364Z,36.10
2018-03-01T09:30:59.583Z,34.50
2018-03-01T09:33:27.041Z,34.40
2018-03-01T09:35:54.503Z,34.60
2018-03-01T09:38:21.941Z,34.20
2018-03-01T09:40:49.396Z,33.60
2018-03-01T09:43:16.858Z,33.30
2018-03-01T09:45:44.293Z,33.00
2018-03-01T09:48:12.693Z,33.00
2018-03-01T09:50:40.136Z,32.10
2018-03-01T09:53:08.361Z,31.70
2018-03-01T09:55:35.815Z,31.70
2018-03-01T09:58:04.016Z,30.40
2018-03-01T10:00:31.479Z,30.20
2018-03-01T10:02:58.923Z,29.40
2018-03-01T10:05:26.386Z,30.00
2018-03-01T10:07:53.841Z,29.40
2018-03-01T10:10:21.270Z,28.00
2018-03-01T10:12:48.731Z,27.00
2018-03-01T10:15:16.170Z,26.10
2018-03-01T10:17:43.625Z,25.50
2018-03-01T10:20:11.072Z,26.10
2018-03-01T10:22:38.530Z,26.00
2018-03-01T10:25:05.981Z,25.60
2018-03-01T10:27:33.438Z,25.80
2018-03-01T10:30:00.884Z,25.40
2018-03-01T10:32:28.343Z,24.70
2018-03-01T10:34:55.784Z,24.40
2018-03-01T10:37:23.221Z,24.10
2018-03-01T10:39:50.663Z,24.20
2018-03-01T10:42:18.389Z,23.20
2018-03-01T10:44:45.833Z,22.80
2018-03-01T10:47:14.790Z,22.10
2018-03-01T10:49:42.233Z,22.10
2018-03-01T10:52:09.671Z,21.80
2018-03-01T10:54:37.139Z,22.20
2018-03-01T10:57:04.581Z,22.10
2018-03-01T10:59:32.082Z,21.10
2018-03-01T11:02:00.386Z,21.30
2018-03-01T11:04:27.834Z,21.70
2018-03-01T11:06:55.296Z,21.80
2018-03-01T11:09:22.743Z,21.90
2018-03-01T11:11:50.199Z,21.90
2018-03-01T11:14:17.648Z,21.10
2018-03-01T11:16:45.099Z,20.60
2018-03-01T11:19:12.560Z,21.10
2018-03-01T11:21:40.014Z,21.10
2018-03-01T11:24:07.455Z,20.90
2018-03-01T11:26:34.900Z,20.60
2018-03-01T11:29:02.477Z,20.60
2018-03-01T11:31:30.749Z,20.80
2018-03-01T11:33:58.190Z,20.20
2018-03-01T11:36:25.672Z,20.60
2018-03-01T11:38:53.104Z,20.70
2018-03-01T11:41:20.563Z,21.10
2018-03-01T11:43:48.013Z,20.30
2018-03-01T11:46:15.460Z,19.80
2018-03-01T11:48:42.898Z,19.90
2018-03-01T11:51:10.353Z,20.10
2018-03-01T11:53:37.788Z,20.50
2018-03-01T11:56:05.315Z,21.20
2018-03-01T11:58:32.701Z,20.20
2018-03-01T12:01:00.904Z,20.70
2018-03-01T12:03:28.359Z,20.70
2018-03-01T12:05:55.806Z,20.50
2018-03-01T12:08:23.249Z,19.90
2018-03-01T12:10:50.689Z,19.80
2018-03-01T12:13:18.905Z,20.00
2018-03-01T12:15:46.347Z,19.90
2018-03-01T12:18:13.777Z,19.60
2018-03-01T12:20:41.231Z,19.50
2018-03-01T12:23:08.679Z,18.60
2018-03-01T12:25:36.139Z,18.70
2018-03-01T12:28:03.595Z,18.60
2018-03-01T12:30:31.025Z,18.30
2018-03-01T12:32:58.477Z,19.40
2018-03-01T12:35:25.909Z,19.10
2018-03-01T12:37:54.123Z,18.70
2018-03-01T12:40:21.593Z,18.60
2018-03-01T12:42:49.034Z,18.60
2018-03-01T12:45:16.484Z,18.10
2018-03-01T12:47:43.922Z,17.80
2018-03-01T12:50:11.366Z,17.60
2018-03-01T12:52:38.849Z,19.10
2018-03-01T12:55:06.308Z,19.10
2018-03-01T12:57:33.754Z,18.50
2018-03-01T13:00:01.221Z,18.60
2018-03-01T13:02:28.654Z,18.50
2018-03-01T13:04:56.103Z,18.30
2018-03-01T13:07:23.546Z,17.90
2018-03-01T13:09:51.003Z,18.30
2018-03-01T13:12:18.458Z,17.90
2018-03-01T13:14:45.913Z,18.00
2018-03-01T13:17:13.375Z,18.20
2018-03-01T13:19:41.579Z,17.70
2018-03-01T13:22:09.049Z,17.60
2018-03-01T13:24:36.489Z,18.30
2018-03-01T13:27:06.417Z,19.20
2018-03-01T13:29:33.879Z,19.50
2018-03-01T13:32:02.100Z,19.80
2018-03-01T13:34:29.556Z,20.30
2018-03-01T13:36:57.002Z,20.90
2018-03-01T13:39:24.445Z,21.40
2018-03-01T13:41:51.880Z,22.10
2018-03-01T13:44:19.325Z,22.40
2018-03-01T13:46:46.764Z,22.60
2018-03-01T13:49:14.231Z,22.60
2018-03-01T13:51:41.709Z,22.90
2018-03-01T13:54:09.147Z,22.70
2018-03-01T13:56:36.618Z,22.90
2018-03-01T13:59:05.581Z,23.30
2018-03-01T14:01:39.901Z,23.30
2018-03-01T14:04:07.356Z,23.30
2018-03-01T14:06:39.644Z,23.50
2018-03-01T14:09:07.078Z,23.50
2018-03-01T14:11:34.526Z,23.80
2018-03-01T14:14:03.758Z,23.60
2018-03-01T14:16:31.526Z,23.70
2018-03-01T14:19:13.873Z,23.70
2018-03-01T14:21:46.883Z,23.80
2018-03-01T14:24:15.905Z,23.90
2018-03-01T14:27:02.159Z,23.80
2018-03-01T14:29:49.425Z,23.80
2018-03-01T14:32:17.663Z,23.70
2018-03-01T14:34:45.109Z,23.60
2018-03-01T14:37:12.580Z,23.80
2018-03-01T14:39:40.016Z,23.80
2018-03-01T14:42:07.479Z,23.70
2018-03-01T14:44:34.915Z,23.30
2018-03-01T14:47:03.130Z,23.10
2018-03-01T14:49:30.595Z,23.00
2018-03-01T14:51:58.054Z,23.20
2018-03-01T14:54:25.507Z,23.30
2018-03-01T14:56:52.971Z,23.60
2018-03-01T14:59:20.441Z,23.80
2018-03-01T15:01:47.882Z,23.80
2018-03-01T15:04:15.322Z,23.70
2018-03-01T15:06:42.768Z,24.00
2018-03-01T15:09:10.973Z,24.00
2018-03-01T15:11:38.444Z,23.90
2018-03-01T15:14:05.892Z,24.10
2018-03-01T15:16:36.552Z,24.30
2018-03-01T15:19:04.029Z,24.50
2018-03-01T15:21:31.482Z,24.40
2018-03-01T15:23:59.192Z,24.40
2018-03-01T15:26:26.633Z,24.50
2018-03-01T15:28:54.079Z,24.60
2018-03-01T15:31:21.542Z,24.90
2018-03-01T15:33:48.977Z,25.00
2018-03-01T15:36:16.434Z,25.00
2018-03-01T15:38:43.879Z,25.00
2018-03-01T15:41:11.341Z,25.20
2018-03-01T15:43:38.864Z,25.50
2018-03-01T15:46:06.305Z,25.00
2018-03-01T15:48:33.759Z,25.00
2018-03-01T15:51:01.207Z,25.10
2018-03-01T15:53:28.654Z,25.30
2018-03-01T15:55:56.887Z,25.80
2018-03-01T15:58:24.320Z,25.80
2018-03-01T16:00:51.779Z,25.80
2018-03-01T16:03:19.222Z,25.60
2018-03-01T16:05:49.522Z,25.70
2018-03-01T16:08:17.759Z,25.90
2018-03-01T16:10:45.196Z,25.80
2018-03-01T16:13:12.676Z,26.00
2018-03-01T16:15:40.119Z,26.00
2018-03-01T16:18:08.136Z,25.90
2018-03-01T16:20:35.623Z,26.00
2018-03-01T16:23:03.074Z,25.70
2018-03-01T16:25:30.547Z,25.70
2018-03-01T16:27:57.991Z,25.70
2018-03-01T16:30:26.935Z,26.20
2018-03-01T16:32:54.395Z,26.20
2018-03-01T16:35:22.118Z,26.30
2018-03-01T16:37:49.562Z,26.60
2018-03-01T16:40:17.023Z,26.60
2018-03-01T16:42:44.479Z,26.40
2018-03-01T16:45:11.942Z,26.40
2018-03-01T16:47:39.393Z,26.80
2018-03-01T16:50:06.845Z,26.80
2018-03-01T16:52:34.319Z,26.70
2018-03-01T16:55:01.763Z,26.90
2018-03-01T16:57:29.202Z,26.70
2018-03-01T16:59:56.646Z,26.50
2018-03-01T17:02:24.246Z,26.50
2018-03-01T17:04:51.733Z,26.90
2018-03-01T17:07:19.172Z,26.90
2018-03-01T17:09:46.627Z,26.90
2018-03-01T17:12:14.051Z,26.90
2018-03-01T17:14:41.497Z,27.00
2018-03-01T17:17:08.957Z,27.30
2018-03-01T17:19:36.388Z,27.10
2018-03-01T17:22:03.866Z,27.10
2018-03-01T17:24:31.336Z,27.20
2018-03-01T17:26:58.827Z,27.20
2018-03-01T17:29:26.209Z,27.20
2018-03-01T17:31:53.654Z,27.40
2018-03-01T17:34:21.889Z,27.40
2018-03-01T17:36:49.328Z,27.30
2018-03-01T17:39:16.780Z,27.40
2018-03-01T17:41:44.242Z,27.60
2018-03-01T17:44:11.688Z,27.50
2018-03-01T17:46:42.597Z,27.80
2018-03-01T17:49:10.068Z,27.70
2018-03-01T17:51:37.526Z,27.70
2018-03-01T17:54:04.982Z,27.60
2018-03-01T17:56:32.423Z,27.70
2018-03-01T17:58:59.874Z,27.80
2018-03-01T18:01:27.339Z,27.70
2018-03-01T18:03:54.809Z,27.60
2018-03-01T18:06:22.254Z,27.70
2018-03-01T18:08:49.713Z,27.70
2018-03-01T18:11:17.183Z,27.80
2018-03-01T18:13:44.645Z,27.80
2018-03-01T18:16:12.108Z,27.80
2018-03-01T18:18:39.534Z,27.90
2018-03-01T18:21:06.986Z,28.00
2018-03-01T18:23:34.450Z,28.00
2018-03-01T18:26:01.906Z,28.00
2018-03-01T18:28:29.361Z,28.10
2018-03-01T18:30:57.574Z,28.20
2018-03-01T18:33:25.008Z,28.20
2018-03-01T18:35:52.615Z,28.40
2018-03-01T18:38:20.073Z,28.30
2018-03-01T18:40:47.530Z,28.40
2018-03-01T18:43:14.986Z,28.40
2018-03-01T18:45:42.427Z,28.40
2018-03-01T18:48:09.873Z,28.60
2018-03-01T18:50:37.317Z,28.60
2018-03-01T18:53:04.772Z,28.50
2018-03-01T18:55:32.200Z,28.50
2018-03-01T18:57:59.637Z,28.60
2018-03-01T19:00:27.111Z,28.60
2018-03-01T19:02:54.549Z,28.60
2018-03-01T19:05:22.010Z,28.60
2018-03-01T19:07:49.455Z,28.70
2018-03-01T19:10:16.915Z,28.70
2018-03-01T19:12:44.353Z,28.70
2018-03-01T19:15:11.789Z,28.70
2018-03-01T19:17:39.256Z,28.80
2018-03-01T19:20:06.705Z,28.80
2018-03-01T19:22:34.170Z,29.00
2018-03-01T19:25:01.625Z,29.10
2018-03-01T19:27:29.390Z,29.10
2018-03-01T19:29:56.853Z,29.00
2018-03-01T19:32:24.294Z,29.00
2018-03-01T19:34:51.775Z,29.00
2018-03-01T19:37:23.493Z,29.00
2018-03-01T19:39:51.703Z,29.70
2018-03-01T19:42:19.142Z,29.20
2018-03-01T19:44:46.574Z,29.40
2018-03-01T19:47:14.016Z,29.40
2018-03-01T19:49:44.133Z,29.30
2018-03-01T19:52:11.805Z,29.30
2018-03-01T19:54:39.248Z,29.40
2018-03-01T19:57:06.702Z,29.40
2018-03-01T19:59:34.193Z,29.50
2018-03-01T20:02:01.625Z,29.80
2018-03-01T20:04:29.072Z,29.80
2018-03-01T20:06:56.527Z,29.80
2018-03-01T20:09:24.754Z,30.00
2018-03-01T20:11:52.260Z,30.00
2018-03-01T20:14:19.707Z,30.20
2018-03-01T20:16:47.173Z,30.20
2018-03-01T20:19:14.612Z,30.40
2018-03-01T20:21:42.066Z,31.20
2018-03-01T20:24:09.519Z,30.70
2018-03-01T20:26:37.087Z,30.70
2018-03-01T20:29:04.538Z,30.90
2018-03-01T20:31:36.960Z,30.80
2018-03-01T20:34:04.414Z,31.10
2018-03-01T20:36:31.855Z,31.20
2018-03-01T20:38:59.301Z,31.30
2018-03-01T20:41:26.763Z,31.60
2018-03-01T20:43:54.221Z,31.60
2018-03-01T20:46:21.675Z,31.50
2018-03-01T20:48:49.129Z,31.40
2018-03-01T20:51:16.580Z,31.60
2018-03-01T20:53:44.034Z,31.50
2018-03-01T20:56:11.481Z,31.70
2018-03-01T20:58:38.933Z,31.70
2018-03-01T21:01:06.366Z,31.60
2018-03-01T21:03:33.813Z,31.50
2018-03-01T21:06:01.274Z,31.60
2018-03-01T21:08:28.712Z,31.70
2018-03-01T21:10:56.218Z,31.90
2018-03-01T21:13:23.666Z,31.90
2018-03-01T21:15:51.117Z,32.00
2018-03-01T21:18:18.578Z,31.90
2018-03-01T21:20:46.033Z,31.90
2018-03-01T21:23:13.486Z,31.80
2018-03-01T21:25:40.948Z,32.00
2018-03-01T21:28:08.399Z,32.10
2018-03-01T21:30:35.844Z,32.00
2018-03-01T21:33:03.293Z,32.00
2018-03-01T21:35:30.732Z,32.00
2018-03-01T21:37:58.209Z,32.10
2018-03-01T21:40:25.665Z,32.10
2018-03-01T21:42:53.113Z,32.10
2018-03-01T21:45:20.870Z,32.10
2018-03-01T21:47:48.305Z,32.00
2018-03-01T21:50:15.770Z,32.00
2018-03-01T21:52:43.215Z,31.90
2018-03-01T21:55:10.671Z,32.00
2018-03-01T21:57:38.103Z,32.10
2018-03-01T22:00:05.543Z,32.20
2018-03-01T22:02:33.007Z,32.20
2018-03-01T22:05:00.455Z,32.10
2018-03-01T22:07:27.930Z,32.20
2018-03-01T22:09:55.385Z,32.20
2018-03-01T22:12:22.848Z,32.20
2018-03-01T22:14:50.322Z,32.00
2018-03-01T22:17:19.281Z,32.40
2018-03-01T22:19:46.740Z,32.40
2018-03-01T22:22:14.188Z,32.50
2018-03-01T22:24:41.638Z,32.50
2018-03-01T22:27:09.084Z,32.50
2018-03-01T22:29:37.306Z,32.60
2018-03-01T22:32:04.782Z,32.50
2018-03-01T22:34:32.251Z,32.80
2018-03-01T22:36:59.711Z,32.50
2018-03-01T22:39:27.193Z,32.60
2018-03-01T22:41:54.648Z,32.80
2018-03-01T22:44:22.104Z,32.50
2018-03-01T22:46:49.555Z,32.70
2018-03-01T22:49:17.030Z,33.00
2018-03-01T22:51:44.493Z,33.00
2018-03-01T22:54:11.933Z,33.10
2018-03-01T22:56:39.384Z,32.80
2018-03-01T22:59:06.830Z,32.60
2018-03-01T23:01:40.986Z,32.70
2018-03-01T23:04:08.436Z,32.70
2018-03-01T23:06:35.882Z,32.90
2018-03-01T23:09:03.345Z,33.30
2018-03-01T23:11:30.817Z,33.20
2018-03-01T23:13:58.274Z,33.40
2018-03-01T23:16:25.732Z,33.30
2018-03-01T23:18:53.172Z,33.40
2018-03-01T23:21:20.651Z,34.00
2018-03-01T23:23:48.099Z,33.30
2018-03-01T23:26:15.570Z,33.30
2018-03-01T23:28:43.034Z,33.30
2018-03-01T23:31:10.477Z,33.30
2018-03-01T23:33:37.948Z,33.30
2018-03-01T23:36:05.400Z,33.40
2018-03-01T23:38:32.859Z,33.40
2018-03-01T23:41:00.336Z,33.70
2018-03-01T23:43:27.788Z,33.80
2018-03-01T23:45:55.247Z,33.70
2018-03-01T23:48:22.700Z,33.90
2018-03-01T23:50:50.150Z,34.20
2018-03-01T23:53:17.624Z,34.20
2018-03-01T23:55:45.061Z,33.90
2018-03-01T23:58:12.514Z,34.20
